WetterOnline ( http://www.wetteronline.de )

Wetter aktuell Mühldorf

Aktuelles Wetter: Mühldorf am Inn (410m)

6-stündlich | Neueste Meldungen
Ortszeit Temperatur Wetter
So, 24.09. 2:00 7.7° C Nebel
Sa, 23.09. 20:00 13.3° C bedeckt
Sa, 23.09. 14:00 17.9° C wolkenlos
Sa, 23.09. 8:00 5.7° C Nebel
Ortszeit Temperatur Wetter
So, 24.09. 6:30 4.8° C Nebel
So, 24.09. 6:00 5.1° C Nebel
So, 24.09. 5:30 5.5° C Nebel
So, 24.09. 5:00 4.9° C Nebel
So, 24.09. 4:30 6.0° C Nebel
So, 24.09. 4:00 5.9° C Nebel
Ortszeit Relative Feuchte Sichtweite
So, 24.09. 2:00 100% 0.2 km
Sa, 23.09. 20:00 78% 16 km
Sa, 23.09. 14:00 51% 16 km
Sa, 23.09. 8:00 99% 0.2 km
Ortszeit Relative Feuchte Sichtweite
So, 24.09. 6:30 99% 0.5 km
So, 24.09. 6:00 99% 100 m
So, 24.09. 5:30 100% 0.4 km
So, 24.09. 5:00 97% 100 m
So, 24.09. 4:30 100% 100 m
So, 24.09. 4:00 98% 0.3 km
Ortszeit Niederschlagsmenge Niederschlagsart
So, 24.09. 2:00 0.0 l/m2 in 6 Std. -
Sa, 23.09. 20:00 0.0 l/m2 in 12 Std. -
Sa, 23.09. 14:00 0.0 l/m2 in 6 Std. -
Sa, 23.09. 8:00 0.0 l/m2 in 12 Std. -
Ortszeit Niederschlagsmenge Niederschlagsart
So, 24.09. 6:30 keine Meldung -
So, 24.09. 6:00 0.0 l/m2 in 1 Std. -
So, 24.09. 5:30 keine Meldung -
So, 24.09. 5:00 0.0 l/m2 in 1 Std. -
So, 24.09. 4:30 keine Meldung -
So, 24.09. 4:00 0.0 l/m2 in 1 Std. -
Ortszeit Stärke Spitze Richtung
km/h Bft. km/h Grad Sektor
So, 24.09. 2:00 0 0 11 - -
Sa, 23.09. 20:00 4 1 29 220° SW
Sa, 23.09. 14:00 4 1 11 280° W
Sa, 23.09. 8:00 4 1 11 80° O
Ortszeit Stärke Spitze Richtung
km/h Bft. km/h Grad Sektor
So, 24.09. 6:30 0 0 4 - -
So, 24.09. 6:00 2 1 6 310° NW
So, 24.09. 5:30 4 1 7 270° W
So, 24.09. 5:00 4 1 7 310° NW
So, 24.09. 4:30 6 1 6 350° N
So, 24.09. 4:00 2 1 6 110° O
Ortszeit Untergrenze Bedeckung Gattung
total tief tief mittel hoch
So, 24.09. 2:00 2400 m 6/8 6/8 - - -
Sa, 23.09. 20:00 1500 m 8/8 8/8 - - -
Sa, 23.09. 14:00 - 0/8 0/8 - - -
Sa, 23.09. 8:00 <30 m 8/8 8/8 - - -
Ortszeit Bedeckungsgrad in Achtel und Wolkenuntergrenze
So, 24.09. 6:30 7(<30m) 8(5100m) 8(7800m)
So, 24.09. 6:00 5(<30m) 7(5400m) 8(6000m)
So, 24.09. 5:30 4(<30m) 8(6300m) 8(6900m)
So, 24.09. 5:00 4(<30m) 5(2100m) 7(5700m)
So, 24.09. 4:30 9 9 9
So, 24.09. 4:00 3(2400m) 7(7200m)
Ortszeit Luftdruck NN (hPa) Tendenz (hPa in 3 Std.)
So, 24.09. 2:00 1022 - 0,5
Sa, 23.09. 20:00 1021 + 0,5
Sa, 23.09. 14:00 1021 - 1,5
Sa, 23.09. 8:00 1025 + 0,4
Ortszeit Luftdruck NN (hPa) Tendenz (hPa in 3 Std.)
So, 24.09. 6:30 1022 0,0
So, 24.09. 6:00 1022 - 0,1
So, 24.09. 5:30 1022 - 0,1
So, 24.09. 5:00 1022 - 0,2
So, 24.09. 4:30 1022 - 0,3
So, 24.09. 4:00 1022 - 0,5
Ortszeit Schneehöhe (cm)
So, 24.09. 2:00 -
Sa, 23.09. 20:00 -
Sa, 23.09. 14:00 -
Sa, 23.09. 8:00 -
Ortszeit Schneehöhe (cm)
So, 24.09. 6:30 -
So, 24.09. 6:00 -
So, 24.09. 5:30 -
So, 24.09. 5:00 -
So, 24.09. 4:30 -
So, 24.09. 4:00 -
Link zu dieser Seite / Seite empfehlen

Das Wetter in ...